3MY weather

Mount Hawley Auxiliary Airport
Peoria, Illinois, United States

Public forecast

Using degrees Fahrenheit for public forecast. Weather courtesy of forecast.io.

Closest aviation weather report (METAR) to Mount Hawley Auxiliary Airport

Closest report is General Wayne A. Downing Peoria International Airport, 8.7 nm (16.1 km) SSW. Retrieved 2019/10/16 02:54 UTC (23 minutes ago):

KPIA 160254Z 30009G18KT 10SM CLR 10/04 A2990 RMK AO2 SLP127 T01000039 51021

Closest aviation forecast (TAF) to Mount Hawley Auxiliary Airport

Closest forecast is General Wayne A. Downing Peoria International Airport, 8.7 nm (16.1 km) SSW. Retrieved 2019-10-16 00:33 UTC (3 hours ago):

TAF KPIA 152330Z 1600/1624 30014G22KT P6SM SCT120 FM160300 31012G18KT P6SM BKN040 FM160800 31012KT P6SM OVC015 FM161600 31015G22KT P6SM OVC025